Time;durP1;ratioP1;P1;durP2;ratioP2;P2;SDS_P1;SDS_P2;PMS_P1;PMS_P2;Temp;Humidity;BMP_temperature;BMP_pressure;BME280_temperature;BME280_humidity;BME280_pressure;Samples;Min_cycle;Max_cycle;Signal;HPM_P1;HPM_P2
2023/10/26 00:00:42;;;;;;;12.50;10.63;;;9.70;99.90;;;;;;5108419;27;21059;-82
2023/10/26 00:03:11;;;;;;;15.40;12.03;;;9.70;99.90;;;;;;5104400;27;20450;-82
2023/10/26 00:05:38;;;;;;;14.60;11.50;;;9.70;99.90;;;;;;5110766;27;20507;-82
2023/10/26 00:08:05;;;;;;;11.27;9.73;;;9.80;99.90;;;;;;5106225;27;20764;-81
2023/10/26 00:10:32;;;;;;;10.30;8.57;;;9.80;99.90;;;;;;5125092;27;20497;-82
2023/10/26 00:12:58;;;;;;;8.87;7.87;;;9.70;99.90;;;;;;5111478;27;20537;-81
2023/10/26 00:15:25;;;;;;;10.33;8.60;;;9.70;99.90;;;;;;5108691;27;20461;-81
2023/10/26 00:17:52;;;;;;;11.63;8.10;;;9.80;99.90;;;;;;5119634;27;20564;-82
2023/10/26 00:20:21;;;;;;;12.13;9.73;;;9.80;99.90;;;;;;5106131;27;20476;-82
2023/10/26 00:22:47;;;;;;;14.90;8.23;;;9.80;99.90;;;;;;5106859;27;20458;-82
2023/10/26 00:25:15;;;;;;;9.37;7.27;;;9.80;99.90;;;;;;5116878;27;20438;-82
2023/10/26 00:27:41;;;;;;;8.63;7.77;;;9.80;99.90;;;;;;5107169;27;20442;-82
2023/10/26 00:30:11;;;;;;;12.00;8.93;;;9.90;99.90;;;;;;5114412;27;20514;-82
2023/10/26 00:32:38;;;;;;;10.20;7.00;;;9.90;99.90;;;;;;5105611;27;20446;-82
2023/10/26 00:35:06;;;;;;;10.30;8.20;;;9.90;99.90;;;;;;5111053;27;20498;-82
2023/10/26 00:37:34;;;;;;;10.20;7.43;;;10.00;99.90;;;;;;5114943;27;20489;-82
2023/10/26 00:40:01;;;;;;;9.83;8.80;;;10.00;99.90;;;;;;5113216;27;20521;-82
2023/10/26 00:42:28;;;;;;;10.77;8.23;;;10.00;99.90;;;;;;5118660;27;20442;-82
2023/10/26 00:44:56;;;;;;;12.50;8.30;;;10.00;99.90;;;;;;5121294;27;20437;-82
2023/10/26 00:47:25;;;;;;;13.43;9.07;;;10.00;99.90;;;;;;5110086;27;20482;-82
2023/10/26 00:49:52;;;;;;;11.93;9.87;;;10.10;99.90;;;;;;5119020;27;20918;-82
2023/10/26 00:52:19;;;;;;;10.53;8.97;;;10.10;99.90;;;;;;5112521;27;20557;-82
2023/10/26 00:54:48;;;;;;;9.47;8.57;;;10.20;99.90;;;;;;5109420;27;20437;-82
2023/10/26 00:57:17;;;;;;;10.33;8.33;;;10.20;99.90;;;;;;5106356;28;20482;-81
2023/10/26 00:59:46;;;;;;;13.47;10.40;;;10.30;99.90;;;;;;5113756;27;20544;-82
2023/10/26 01:02:14;;;;;;;8.87;7.97;;;10.30;99.90;;;;;;5103061;27;20569;-82
2023/10/26 01:04:41;;;;;;;12.50;8.27;;;10.30;99.90;;;;;;5107640;27;20499;-82
2023/10/26 01:07:08;;;;;;;12.27;8.37;;;10.20;99.90;;;;;;5120181;27;20617;-81
2023/10/26 01:09:35;;;;;;;10.23;8.90;;;10.20;99.90;;;;;;5118476;27;20436;-81
2023/10/26 01:12:05;;;;;;;11.47;9.00;;;10.20;99.90;;;;;;5110021;27;20472;-81
2023/10/26 01:14:32;;;;;;;10.80;9.80;;;10.10;99.90;;;;;;5111398;27;20521;-81
2023/10/26 01:16:59;;;;;;;15.07;8.60;;;10.20;99.90;;;;;;5120792;27;20953;-82
2023/10/26 01:19:38;;;;;;;8.60;7.33;;;10.10;99.90;;;;;;5111999;27;20534;-82
2023/10/26 01:22:07;;;;;;;8.63;7.73;;;10.20;99.90;;;;;;5114364;27;20555;-81
2023/10/26 01:24:34;;;;;;;10.70;7.80;;;10.30;99.90;;;;;;5105681;27;20910;-82
2023/10/26 01:27:01;;;;;;;10.53;8.20;;;10.30;99.90;;;;;;5103390;27;21033;-82
2023/10/26 01:29:29;;;;;;;10.13;8.57;;;10.40;99.90;;;;;;5105946;27;20473;-82
2023/10/26 01:31:56;;;;;;;7.80;5.63;;;10.50;99.90;;;;;;5112541;27;20468;-82
2023/10/26 01:34:23;;;;;;;7.40;6.70;;;10.50;99.90;;;;;;5113836;27;20525;-82
2023/10/26 01:36:50;;;;;;;6.73;6.00;;;10.60;99.90;;;;;;5110334;27;20454;-82
2023/10/26 01:39:18;;;;;;;6.93;5.67;;;10.60;99.90;;;;;;5104458;27;20481;-82
2023/10/26 01:41:46;;;;;;;7.00;5.67;;;10.60;99.90;;;;;;5116296;27;20442;-82
2023/10/26 01:44:14;;;;;;;6.03;5.30;;;10.60;99.90;;;;;;5110530;27;20472;-82
2023/10/26 01:46:41;;;;;;;5.60;4.83;;;10.60;99.90;;;;;;5113495;27;20766;-82
2023/10/26 01:49:08;;;;;;;5.63;5.13;;;10.60;99.90;;;;;;5103907;27;20514;-81
2023/10/26 01:51:35;;;;;;;7.17;5.60;;;10.70;99.90;;;;;;5107178;27;20511;-81
2023/10/26 01:54:01;;;;;;;4.43;4.00;;;10.70;99.90;;;;;;5109422;27;20453;-81
2023/10/26 01:56:31;;;;;;;5.20;4.10;;;10.70;99.90;;;;;;5111202;27;20466;-81
2023/10/26 01:58:58;;;;;;;2.13;1.23;;;10.70;99.90;;;;;;5108484;27;20554;-81
2023/10/26 02:01:25;;;;;;;3.30;2.43;;;10.80;99.90;;;;;;5122659;27;20854;-81
2023/10/26 02:03:52;;;;;;;1.80;1.70;;;10.80;99.90;;;;;;5110171;27;20535;-81
2023/10/26 02:06:19;;;;;;;2.90;2.57;;;10.80;99.90;;;;;;5114801;27;20514;-82
2023/10/26 02:08:46;;;;;;;2.10;1.80;;;10.80;99.90;;;;;;5121541;27;20442;-81
2023/10/26 02:11:13;;;;;;;2.57;2.17;;;10.80;99.90;;;;;;5129606;27;20893;-81
2023/10/26 02:13:41;;;;;;;1.87;1.67;;;10.80;99.90;;;;;;5112691;27;20454;-81
2023/10/26 02:16:08;;;;;;;1.40;1.30;;;10.80;99.90;;;;;;5112031;27;20455;-81
2023/10/26 02:18:35;;;;;;;2.43;2.20;;;10.80;99.90;;;;;;5111039;27;20489;-81
2023/10/26 02:21:02;;;;;;;1.50;1.40;;;10.90;99.90;;;;;;5117092;27;20503;-82
2023/10/26 02:23:29;;;;;;;1.67;0.90;;;10.80;99.90;;;;;;5119257;27;20953;-81
2023/10/26 02:25:57;;;;;;;1.23;1.00;;;10.80;99.90;;;;;;5107649;27;20504;-81
2023/10/26 02:28:25;;;;;;;1.87;1.40;;;10.80;99.90;;;;;;5110652;27;20492;-81
2023/10/26 02:30:53;;;;;;;1.40;1.00;;;10.80;99.90;;;;;;5116208;27;20699;-81
2023/10/26 02:33:20;;;;;;;0.90;0.90;;;10.80;99.90;;;;;;5108153;27;20462;-81
2023/10/26 02:35:48;;;;;;;1.50;1.00;;;10.80;99.90;;;;;;5106828;27;20445;-81
2023/10/26 02:38:15;;;;;;;1.13;1.03;;;10.80;99.90;;;;;;5105763;27;20546;-81
2023/10/26 02:40:42;;;;;;;0.90;0.80;;;10.80;99.90;;;;;;5115431;27;20478;-81
2023/10/26 02:43:09;;;;;;;1.00;0.90;;;10.80;99.90;;;;;;5110344;27;20997;-81
2023/10/26 02:45:36;;;;;;;0.97;0.80;;;10.80;99.90;;;;;;5128982;27;20469;-81
2023/10/26 02:48:04;;;;;;;1.60;1.00;;;10.80;99.90;;;;;;5107250;27;20903;-81
2023/10/26 02:50:31;;;;;;;2.97;1.00;;;10.80;99.90;;;;;;5117133;27;20466;-81
2023/10/26 02:52:58;;;;;;;0.73;0.73;;;10.80;99.90;;;;;;5115039;27;20455;-81
2023/10/26 02:55:26;;;;;;;0.60;0.47;;;10.80;99.90;;;;;;5120037;27;20472;-81
2023/10/26 02:57:53;;;;;;;2.30;0.50;;;10.80;99.90;;;;;;5115316;27;20568;-82
2023/10/26 03:00:20;;;;;;;0.40;0.40;;;10.80;99.90;;;;;;5119409;27;20441;-81
2023/10/26 03:02:47;;;;;;;0.60;0.57;;;10.80;99.90;;;;;;5113282;27;20824;-81
2023/10/26 03:05:16;;;;;;;0.50;0.40;;;10.80;99.90;;;;;;5120845;27;20525;-81
2023/10/26 03:07:46;;;;;;;0.50;0.37;;;10.80;99.90;;;;;;5119011;27;20556;-81
2023/10/26 03:10:13;;;;;;;0.90;0.40;;;10.80;99.90;;;;;;5116263;27;20917;-81
2023/10/26 03:12:40;;;;;;;1.23;1.10;;;10.90;99.90;;;;;;5104157;27;20484;-81
2023/10/26 03:15:08;;;;;;;0.50;0.30;;;10.90;99.90;;;;;;5114621;27;20449;-82
2023/10/26 03:17:35;;;;;;;1.33;0.50;;;10.90;99.90;;;;;;5107095;27;20875;-82
2023/10/26 03:20:05;;;;;;;1.43;0.40;;;10.90;99.90;;;;;;5116524;27;20458;-82
2023/10/26 03:22:33;;;;;;;0.50;0.30;;;10.90;99.90;;;;;;5107540;27;20458;-82
2023/10/26 03:25:01;;;;;;;0.40;0.30;;;10.90;99.90;;;;;;5128313;27;20465;-81
2023/10/26 03:27:27;;;;;;;0.40;0.30;;;10.90;99.90;;;;;;5108427;27;20447;-82
2023/10/26 03:29:55;;;;;;;0.40;0.30;;;10.90;99.90;;;;;;5111534;27;20441;-82
2023/10/26 03:32:22;;;;;;;0.53;0.40;;;10.90;99.90;;;;;;5104452;27;20454;-82
2023/10/26 03:34:49;;;;;;;0.40;0.30;;;10.90;99.90;;;;;;5115472;27;20463;-82
2023/10/26 03:37:16;;;;;;;1.30;0.43;;;10.90;99.90;;;;;;5109293;27;20765;-81
2023/10/26 03:39:45;;;;;;;6.53;0.80;;;10.90;99.90;;;;;;5111684;27;20490;-82
2023/10/26 03:42:11;;;;;;;2.30;0.50;;;10.90;99.90;;;;;;5114833;27;20928;-82
2023/10/26 03:44:38;;;;;;;0.50;0.40;;;10.90;99.90;;;;;;5103869;27;20466;-82
2023/10/26 03:47:06;;;;;;;1.73;0.40;;;10.90;99.90;;;;;;5116400;27;20443;-81
2023/10/26 03:49:34;;;;;;;0.60;0.40;;;10.80;99.90;;;;;;5110810;27;20515;-81
2023/10/26 03:52:01;;;;;;;0.40;0.40;;;10.80;99.90;;;;;;5117783;27;20463;-81
2023/10/26 03:54:28;;;;;;;0.40;0.33;;;10.70;99.90;;;;;;5120464;27;20472;-81
2023/10/26 03:56:56;;;;;;;0.60;0.30;;;10.70;99.90;;;;;;5106270;27;20526;-81
2023/10/26 03:59:23;;;;;;;0.80;0.40;;;10.60;99.90;;;;;;5103184;27;21281;-81
2023/10/26 04:01:50;;;;;;;2.63;0.30;;;10.50;99.90;;;;;;5108893;27;20442;-81
2023/10/26 04:04:17;;;;;;;0.50;0.30;;;10.60;99.90;;;;;;5116620;27;20450;-81
2023/10/26 04:06:45;;;;;;;1.20;0.40;;;10.60;99.90;;;;;;5109055;27;20462;-81
2023/10/26 04:09:13;;;;;;;0.50;0.43;;;10.70;99.90;;;;;;5116926;27;20443;-81
2023/10/26 04:11:42;;;;;;;1.03;0.40;;;10.70;99.90;;;;;;5109472;27;20481;-81
2023/10/26 04:14:10;;;;;;;1.63;1.03;;;10.70;99.90;;;;;;5107428;27;20526;-81
2023/10/26 04:16:37;;;;;;;1.23;0.40;;;10.60;99.90;;;;;;5109839;27;20510;-81
2023/10/26 04:19:04;;;;;;;1.17;1.07;;;10.70;99.90;;;;;;5117351;27;20482;-82
2023/10/26 04:21:31;;;;;;;1.33;0.40;;;10.60;99.90;;;;;;5120326;27;20491;-81
2023/10/26 04:23:59;;;;;;;1.07;0.40;;;10.60;99.90;;;;;;5135906;27;20444;-81
2023/10/26 04:26:26;;;;;;;0.60;0.40;;;10.60;99.90;;;;;;5113055;27;20450;-81
2023/10/26 04:28:53;;;;;;;0.57;0.50;;;10.60;99.90;;;;;;5107544;27;20843;-81
2023/10/26 04:31:22;;;;;;;0.73;0.40;;;10.50;99.90;;;;;;5110306;27;20458;-81
2023/10/26 04:33:50;;;;;;;1.57;0.80;;;10.50;99.90;;;;;;5108656;27;20499;-81
2023/10/26 04:36:17;;;;;;;1.50;0.30;;;10.50;99.90;;;;;;5105869;27;20438;-81
2023/10/26 04:38:44;;;;;;;0.40;0.30;;;10.50;99.90;;;;;;5103452;27;20493;-81
2023/10/26 04:41:11;;;;;;;0.43;0.30;;;10.50;99.90;;;;;;5125872;27;20898;-81
2023/10/26 04:43:38;;;;;;;0.70;0.30;;;10.50;99.90;;;;;;5119269;27;20512;-81
2023/10/26 04:46:05;;;;;;;0.50;0.37;;;10.40;99.90;;;;;;5109489;27;20534;-81
2023/10/26 04:48:33;;;;;;;0.67;0.30;;;10.30;99.90;;;;;;5108980;27;20438;-81
2023/10/26 04:51:00;;;;;;;0.77;0.33;;;10.30;99.90;;;;;;5116603;27;20450;-81
2023/10/26 04:53:27;;;;;;;0.50;0.30;;;10.30;99.90;;;;;;5117065;27;20477;-82
2023/10/26 04:55:54;;;;;;;0.53;0.30;;;10.30;99.90;;;;;;5115069;27;20446;-81
2023/10/26 04:58:21;;;;;;;0.40;0.30;;;10.30;99.90;;;;;;5113781;27;20503;-81
2023/10/26 05:00:48;;;;;;;0.50;0.40;;;10.30;99.90;;;;;;5111051;27;20972;-82
2023/10/26 05:03:15;;;;;;;0.40;0.30;;;10.30;99.90;;;;;;5112260;27;20538;-81
2023/10/26 05:05:44;;;;;;;0.40;0.30;;;10.20;99.90;;;;;;5117843;27;20465;-81
2023/10/26 05:08:11;;;;;;;0.40;0.30;;;10.10;99.90;;;;;;5110152;27;20870;-82
2023/10/26 05:10:37;;;;;;;0.80;0.40;;;10.00;99.90;;;;;;5109667;27;20466;-81
2023/10/26 05:13:04;;;;;;;0.40;0.20;;;9.90;99.90;;;;;;5105167;27;20531;-81
2023/10/26 05:15:31;;;;;;;0.70;0.50;;;9.90;99.90;;;;;;5108652;27;20438;-82
2023/10/26 05:17:58;;;;;;;49.93;27.20;;;9.90;99.90;;;;;;5109749;27;20937;-82
2023/10/26 05:20:25;;;;;;;3.03;1.80;;;9.90;99.90;;;;;;5103981;27;20610;-81
2023/10/26 05:22:54;;;;;;;2.30;1.47;;;10.00;99.90;;;;;;5109229;27;20461;-81
2023/10/26 05:25:21;;;;;;;0.50;0.50;;;10.00;99.90;;;;;;5114948;27;20835;-81
2023/10/26 05:27:48;;;;;;;0.40;0.30;;;10.20;99.90;;;;;;5117380;27;20457;-81
2023/10/26 05:30:15;;;;;;;0.40;0.30;;;10.20;99.90;;;;;;5109357;27;20434;-81
2023/10/26 05:32:42;;;;;;;0.90;0.40;;;10.20;99.90;;;;;;5110650;27;20500;-80
2023/10/26 05:35:09;;;;;;;0.93;0.30;;;10.20;99.90;;;;;;5127640;27;20537;-80
2023/10/26 05:37:36;;;;;;;0.43;0.40;;;10.30;99.90;;;;;;5106145;27;20869;-80
2023/10/26 05:40:08;;;;;;;0.67;0.67;;;10.20;99.90;;;;;;5111024;27;20524;-80
2023/10/26 05:42:35;;;;;;;2.40;2.20;;;10.30;99.90;;;;;;5106729;27;20913;-80
2023/10/26 05:45:02;;;;;;;1.47;0.70;;;10.30;99.90;;;;;;5127468;27;20526;-81
2023/10/26 05:47:29;;;;;;;0.50;0.50;;;10.30;99.90;;;;;;5108933;27;21121;-80
2023/10/26 05:49:56;;;;;;;0.50;0.50;;;10.30;99.90;;;;;;5120028;27;20897;-81
2023/10/26 05:52:24;;;;;;;0.50;0.40;;;10.20;99.90;;;;;;5109350;27;20470;-81
2023/10/26 05:54:52;;;;;;;0.70;0.40;;;10.20;99.90;;;;;;5110437;27;20791;-81
2023/10/26 05:57:20;;;;;;;0.40;0.30;;;10.10;99.90;;;;;;5108835;27;20949;-81
2023/10/26 05:59:47;;;;;;;0.40;0.30;;;10.10;99.90;;;;;;5113928;27;20517;-81
2023/10/26 06:02:14;;;;;;;0.40;0.30;;;10.10;99.90;;;;;;5114751;27;20489;-81
2023/10/26 06:04:41;;;;;;;0.60;0.40;;;10.10;99.90;;;;;;5111806;27;20500;-80
2023/10/26 06:07:08;;;;;;;0.70;0.30;;;10.20;99.90;;;;;;5118904;27;20530;-81
2023/10/26 06:09:35;;;;;;;0.40;0.30;;;10.20;99.90;;;;;;5115092;27;20438;-81
2023/10/26 06:12:02;;;;;;;0.50;0.30;;;10.20;99.90;;;;;;5109631;27;20493;-81
2023/10/26 06:14:30;;;;;;;0.60;0.30;;;10.30;99.90;;;;;;5107302;27;20843;-81
2023/10/26 06:16:57;;;;;;;0.40;0.23;;;10.50;99.90;;;;;;5108366;27;20466;-81
2023/10/26 06:19:24;;;;;;;0.40;0.30;;;10.60;99.90;;;;;;5117294;27;20517;-81
2023/10/26 06:21:51;;;;;;;0.80;0.70;;;10.60;99.90;;;;;;5112040;27;20561;-81
2023/10/26 06:24:18;;;;;;;0.47;0.30;;;10.60;99.90;;;;;;5114421;27;20643;-81
2023/10/26 06:26:45;;;;;;;0.50;0.37;;;10.60;99.90;;;;;;5104592;27;20530;-81
2023/10/26 06:29:12;;;;;;;4.73;0.30;;;10.70;99.90;;;;;;5110347;27;20908;-81
2023/10/26 06:31:41;;;;;;;2.00;0.30;;;10.70;99.90;;;;;;5121754;27;20442;-81
2023/10/26 06:34:08;;;;;;;0.40;0.30;;;10.60;99.90;;;;;;5118836;27;20510;-81
2023/10/26 06:36:34;;;;;;;0.80;0.37;;;10.60;99.90;;;;;;5110928;27;20527;-81
2023/10/26 06:39:02;;;;;;;2.27;0.40;;;10.50;99.90;;;;;;5107078;27;20544;-81
2023/10/26 06:41:29;;;;;;;0.60;0.40;;;10.40;99.90;;;;;;5104525;27;20462;-81
2023/10/26 06:43:56;;;;;;;0.60;0.50;;;10.40;99.90;;;;;;5107875;27;20459;-81
2023/10/26 06:46:24;;;;;;;0.40;0.30;;;10.30;99.90;;;;;;5128041;27;21385;-82
2023/10/26 06:48:54;;;;;;;0.70;0.23;;;10.40;99.90;;;;;;5110338;27;20485;-82
2023/10/26 06:51:22;;;;;;;0.97;0.67;;;10.40;99.90;;;;;;5115122;27;20551;-82
2023/10/26 06:53:49;;;;;;;0.60;0.30;;;10.60;99.90;;;;;;5110683;27;20489;-81
2023/10/26 06:56:16;;;;;;;0.50;0.40;;;10.70;99.90;;;;;;5111506;27;20457;-82
2023/10/26 06:58:43;;;;;;;0.50;0.30;;;10.70;99.90;;;;;;5118718;27;20495;-81
2023/10/26 07:01:10;;;;;;;0.40;0.30;;;10.70;99.90;;;;;;5110533;27;20936;-82
2023/10/26 07:03:37;;;;;;;0.83;0.40;;;10.70;99.90;;;;;;5102993;27;20492;-82
2023/10/26 07:06:06;;;;;;;0.47;0.30;;;10.70;99.90;;;;;;5107431;27;20464;-82
2023/10/26 07:08:34;;;;;;;0.50;0.40;;;10.70;99.90;;;;;;5115466;27;21775;-82
2023/10/26 07:11:05;;;;;;;0.50;0.30;;;10.90;99.90;;;;;;5118228;27;20562;-82
2023/10/26 07:13:32;;;;;;;0.80;0.57;;;11.10;99.90;;;;;;5109853;27;20459;-82
2023/10/26 07:15:59;;;;;;;0.60;0.30;;;11.20;99.90;;;;;;5113511;27;20477;-81
2023/10/26 07:18:27;;;;;;;0.50;0.40;;;11.40;99.90;;;;;;5131802;27;20995;-82
2023/10/26 07:20:54;;;;;;;0.60;0.30;;;11.50;99.90;;;;;;5110801;27;20485;-82
2023/10/26 07:23:22;;;;;;;0.70;0.50;;;11.60;99.90;;;;;;5107825;27;20522;-82
2023/10/26 07:25:49;;;;;;;0.93;0.80;;;11.60;99.90;;;;;;5109340;27;20535;-82
2023/10/26 07:28:16;;;;;;;0.60;0.50;;;11.50;99.90;;;;;;5111108;27;20565;-82
2023/10/26 07:30:43;;;;;;;0.77;0.40;;;11.60;99.90;;;;;;5111866;27;20457;-82
2023/10/26 07:33:10;;;;;;;1.37;0.50;;;11.60;99.90;;;;;;5105587;27;20456;-82
2023/10/26 07:35:41;;;;;;;0.70;0.50;;;11.70;99.90;;;;;;5105049;27;20516;-83
2023/10/26 07:38:08;;;;;;;0.70;0.30;;;11.80;99.90;;;;;;5105676;27;21008;-83
2023/10/26 07:40:37;;;;;;;0.63;0.30;;;12.10;99.90;;;;;;5128669;27;20539;-83
2023/10/26 07:43:04;;;;;;;0.50;0.40;;;12.30;99.90;;;;;;5112279;27;20509;-83
2023/10/26 07:45:31;;;;;;;0.50;0.50;;;12.40;99.90;;;;;;5103445;27;20518;-83
2023/10/26 07:47:58;;;;;;;1.03;0.30;;;12.60;99.90;;;;;;5109757;27;20549;-83
2023/10/26 07:50:25;;;;;;;0.50;0.33;;;12.70;99.90;;;;;;5117085;27;20434;-83
2023/10/26 07:52:52;;;;;;;0.47;0.40;;;12.70;99.90;;;;;;5107583;27;20496;-83
2023/10/26 07:55:19;;;;;;;2.40;0.50;;;12.60;99.90;;;;;;5118540;27;20453;-83
2023/10/26 07:57:47;;;;;;;0.50;0.40;;;12.40;99.90;;;;;;5109995;27;20959;-84
2023/10/26 08:00:15;;;;;;;0.50;0.40;;;12.30;99.90;;;;;;5108635;27;20484;-84
2023/10/26 08:02:42;;;;;;;0.60;0.40;;;12.30;99.90;;;;;;5119806;27;20477;-83
2023/10/26 08:05:11;;;;;;;0.53;0.30;;;12.20;99.90;;;;;;5110207;27;20464;-83
2023/10/26 08:07:38;;;;;;;0.60;0.40;;;12.10;99.90;;;;;;5107077;27;20471;-83
2023/10/26 08:10:06;;;;;;;0.50;0.50;;;12.00;99.90;;;;;;5118160;27;21160;-83
2023/10/26 08:12:33;;;;;;;0.60;0.50;;;12.10;99.90;;;;;;5112021;27;20589;-84
2023/10/26 08:15:02;;;;;;;0.60;0.50;;;12.30;99.90;;;;;;5107075;27;20463;-84
2023/10/26 08:17:34;;;;;;;0.80;0.40;;;12.70;99.90;;;;;;5113640;27;20466;-83
2023/10/26 08:20:04;;;;;;;0.50;0.50;;;13.10;99.90;;;;;;5105024;27;20483;-84
2023/10/26 08:22:31;;;;;;;1.77;1.67;;;13.20;99.90;;;;;;5122122;27;20521;-84
2023/10/26 08:24:59;;;;;;;0.70;0.40;;;13.30;99.90;;;;;;5125914;27;20444;-84
2023/10/26 08:27:26;;;;;;;1.03;0.93;;;13.60;99.90;;;;;;5121177;27;20496;-84
2023/10/26 08:29:53;;;;;;;0.50;0.37;;;13.60;99.90;;;;;;5118695;27;20517;-84
2023/10/26 08:32:21;;;;;;;0.87;0.60;;;13.50;99.90;;;;;;5115770;27;20472;-85
2023/10/26 08:34:48;;;;;;;0.63;0.40;;;13.50;99.90;;;;;;5112490;27;20572;-84
2023/10/26 08:37:17;;;;;;;0.50;0.40;;;13.60;99.90;;;;;;5112382;27;20557;-84
2023/10/26 08:39:44;;;;;;;0.60;0.30;;;13.60;99.90;;;;;;5103960;27;20492;-84
2023/10/26 08:42:11;;;;;;;1.43;0.30;;;13.80;99.90;;;;;;5107889;27;20545;-84
2023/10/26 08:44:39;;;;;;;0.40;0.30;;;13.80;99.90;;;;;;5107070;27;20457;-84
2023/10/26 08:47:10;;;;;;;0.50;0.40;;;13.80;99.90;;;;;;5116285;27;20463;-84
2023/10/26 08:49:39;;;;;;;0.57;0.30;;;13.80;99.90;;;;;;5106100;27;20544;-84
2023/10/26 08:52:08;;;;;;;0.40;0.30;;;13.60;99.90;;;;;;5109420;27;20470;-84
2023/10/26 08:54:35;;;;;;;0.47;0.30;;;13.50;99.90;;;;;;5108226;27;20484;-84
2023/10/26 08:57:07;;;;;;;0.77;0.27;;;13.50;99.90;;;;;;5111784;27;20495;-84
2023/10/26 08:59:34;;;;;;;0.90;0.40;;;13.60;99.90;;;;;;5110481;27;20552;-84
2023/10/26 09:02:01;;;;;;;0.93;0.30;;;13.70;99.90;;;;;;5106976;27;20820;-84
2023/10/26 09:04:30;;;;;;;0.40;0.30;;;13.90;99.90;;;;;;5107278;27;20552;-84
2023/10/26 09:06:58;;;;;;;0.40;0.30;;;14.10;99.90;;;;;;5120325;27;20490;-84
2023/10/26 09:09:25;;;;;;;1.00;0.20;;;14.40;99.90;;;;;;5109818;27;20469;-84
2023/10/26 09:11:52;;;;;;;2.07;0.30;;;14.40;99.90;;;;;;5116953;27;20550;-84
2023/10/26 09:14:21;;;;;;;0.50;0.23;;;14.50;99.90;;;;;;5118213;27;20563;-84
2023/10/26 09:16:49;;;;;;;1.00;0.40;;;14.60;99.90;;;;;;5110834;27;20455;-84
2023/10/26 09:19:17;;;;;;;0.50;0.30;;;14.40;99.90;;;;;;5114746;27;20799;-84
2023/10/26 09:21:52;;;;;;;0.40;0.20;;;14.40;99.90;;;;;;5113143;27;20516;-84
2023/10/26 09:24:24;;;;;;;0.40;0.30;;;14.60;99.90;;;;;;5116616;27;20549;-84
2023/10/26 09:26:52;;;;;;;0.60;0.20;;;14.90;99.90;;;;;;5112544;27;20855;-84
2023/10/26 09:29:19;;;;;;;0.40;0.30;;;15.10;99.90;;;;;;5119784;27;20470;-84
2023/10/26 09:31:53;;;;;;;0.50;0.30;;;15.10;99.90;;;;;;5110232;27;20562;-84
2023/10/26 09:34:24;;;;;;;0.50;0.40;;;15.10;99.90;;;;;;5110137;27;20545;-84
2023/10/26 09:37:05;;;;;;;0.70;0.20;;;15.10;99.90;;;;;;5112193;27;20661;-85
2023/10/26 09:39:35;;;;;;;0.70;0.40;;;14.90;99.90;;;;;;5107826;27;20837;-85
2023/10/26 09:42:05;;;;;;;0.60;0.30;;;14.80;99.90;;;;;;5114031;27;20455;-84
2023/10/26 09:44:33;;;;;;;1.37;0.30;;;14.70;99.90;;;;;;5113205;27;20459;-84
2023/10/26 09:47:00;;;;;;;0.80;0.23;;;14.50;99.90;;;;;;5111882;27;20859;-84
2023/10/26 09:49:28;;;;;;;0.40;0.20;;;14.50;99.90;;;;;;5111590;27;20485;-84
2023/10/26 09:51:55;;;;;;;0.93;0.30;;;14.40;99.90;;;;;;5126271;27;20922;-84
2023/10/26 09:54:28;;;;;;;0.60;0.33;;;14.40;99.90;;;;;;5124752;27;20446;-84
2023/10/26 09:57:01;;;;;;;0.40;0.20;;;14.50;99.90;;;;;;5109541;27;20463;-84
2023/10/26 09:59:29;;;;;;;0.40;0.20;;;14.50;99.90;;;;;;5110220;27;20499;-85
2023/10/26 10:01:56;;;;;;;0.40;0.30;;;14.50;99.90;;;;;;5116004;27;20580;-85
2023/10/26 10:04:37;;;;;;;0.40;0.20;;;14.60;99.90;;;;;;5108266;27;20451;-85
2023/10/26 10:07:04;;;;;;;0.50;0.30;;;14.40;99.90;;;;;;5111642;27;20450;-85
2023/10/26 10:09:32;;;;;;;2.60;0.30;;;14.30;99.90;;;;;;5119448;27;20676;-85
2023/10/26 10:12:35;;;;;;;0.50;0.30;;;14.30;99.90;;;;;;5118613;27;20486;-85
2023/10/26 10:15:06;;;;;;;0.40;0.30;;;14.30;99.90;;;;;;5108839;27;20464;-85
2023/10/26 10:18:13;;;;;;;0.50;0.30;;;14.20;99.90;;;;;;5111340;27;20912;-85
2023/10/26 10:20:41;;;;;;;0.50;0.30;;;14.10;99.90;;;;;;5112474;27;20563;-85
2023/10/26 10:23:09;;;;;;;0.50;0.30;;;14.10;99.90;;;;;;5118941;27;20533;-84
2023/10/26 10:26:00;;;;;;;0.67;0.50;;;14.20;99.90;;;;;;5128513;27;20530;-84
2023/10/26 10:28:54;;;;;;;0.80;0.37;;;14.30;99.90;;;;;;5107307;27;20455;-84
2023/10/26 10:31:37;;;;;;;0.50;0.30;;;14.30;99.90;;;;;;5114262;27;20624;-84
2023/10/26 10:34:05;;;;;;;0.43;0.30;;;14.50;99.90;;;;;;5116828;27;20444;-85
2023/10/26 10:37:14;;;;;;;1.27;0.40;;;14.60;99.90;;;;;;5118349;27;20950;-84
2023/10/26 10:40:13;;;;;;;0.40;0.30;;;14.80;99.90;;;;;;5105437;27;20571;-84
2023/10/26 10:42:42;;;;;;;10.80;8.53;;;14.90;99.90;;;;;;5114985;27;20461;-84
2023/10/26 10:45:15;;;;;;;8.27;7.00;;;14.90;99.90;;;;;;5116184;27;20580;-85
2023/10/26 10:47:42;;;;;;;0.50;0.40;;;15.00;99.90;;;;;;5102265;27;21038;-83
2023/10/26 10:50:17;;;;;;;4.07;3.70;;;15.00;99.90;;;;;;5116901;27;20520;-83
2023/10/26 10:52:44;;;;;;;2.10;0.90;;;15.10;99.90;;;;;;5107767;27;20515;-84
2023/10/26 10:55:11;;;;;;;1.67;0.80;;;15.00;99.90;;;;;;5117131;27;20507;-85
2023/10/26 10:57:52;;;;;;;2.63;0.30;;;14.90;99.90;;;;;;5109159;27;20452;-85
2023/10/26 11:00:21;;;;;;;0.50;0.40;;;15.00;99.90;;;;;;5115404;27;20463;-85
2023/10/26 11:02:49;;;;;;;2.10;1.53;;;15.10;99.90;;;;;;5112817;27;20466;-85
2023/10/26 11:05:16;;;;;;;0.50;0.40;;;15.20;99.90;;;;;;5111743;27;20460;-85
2023/10/26 11:07:43;;;;;;;0.50;0.40;;;15.30;99.90;;;;;;5112148;27;20494;-85
2023/10/26 11:10:11;;;;;;;0.63;0.40;;;15.20;99.90;;;;;;5110155;27;21359;-85
2023/10/26 11:12:38;;;;;;;0.87;0.40;;;14.80;99.30;;;;;;5115280;27;20478;-85
2023/10/26 11:15:07;;;;;;;1.00;0.70;;;14.60;99.60;;;;;;5108912;27;20488;-85
2023/10/26 11:17:39;;;;;;;2.20;1.80;;;14.60;99.90;;;;;;5109062;27;20470;-85
2023/10/26 11:20:27;;;;;;;1.47;0.30;;;14.40;99.90;;;;;;5116981;27;20478;-85
2023/10/26 11:22:57;;;;;;;0.70;0.30;;;14.20;99.50;;;;;;5110668;27;20515;-85
2023/10/26 11:25:27;;;;;;;0.60;0.20;;;14.10;99.30;;;;;;5117907;27;20465;-85
2023/10/26 11:27:54;;;;;;;0.40;0.30;;;14.20;99.80;;;;;;5109360;27;20525;-85
2023/10/26 11:30:21;;;;;;;0.40;0.30;;;14.40;99.90;;;;;;5126219;27;20569;-86
2023/10/26 11:32:49;;;;;;;0.70;0.30;;;14.60;99.90;;;;;;5109817;27;20498;-85
2023/10/26 11:35:17;;;;;;;0.40;0.30;;;14.50;99.90;;;;;;5108779;27;20897;-86
2023/10/26 11:37:45;;;;;;;0.50;0.30;;;14.60;99.90;;;;;;5109478;27;20494;-84
2023/10/26 11:40:14;;;;;;;0.40;0.40;;;14.70;99.90;;;;;;5112516;27;20534;-85
2023/10/26 11:42:48;;;;;;;0.40;0.30;;;14.70;99.70;;;;;;5105355;27;20897;-85
2023/10/26 11:45:16;;;;;;;0.40;0.27;;;14.70;99.90;;;;;;5109611;27;20522;-85
2023/10/26 11:47:52;;;;;;;0.60;0.40;;;14.60;99.90;;;;;;5108796;27;20547;-85
2023/10/26 11:50:23;;;;;;;0.50;0.40;;;14.60;99.90;;;;;;5109498;27;20462;-85
2023/10/26 11:52:51;;;;;;;1.00;0.30;;;14.60;99.90;;;;;;5114589;27;20465;-84
2023/10/26 11:55:19;;;;;;;0.40;0.30;;;14.50;99.90;;;;;;5105591;27;20482;-84
2023/10/26 11:57:46;;;;;;;0.67;0.40;;;14.50;99.90;;;;;;5104757;27;20477;-84
2023/10/26 12:00:14;;;;;;;2.00;0.40;;;14.60;99.90;;;;;;5108819;27;20463;-84
2023/10/26 12:02:42;;;;;;;0.50;0.30;;;14.60;99.90;;;;;;5112602;27;20520;-84
2023/10/26 12:05:15;;;;;;;2.50;0.47;;;14.80;99.90;;;;;;5109516;27;20468;-84
2023/10/26 12:07:42;;;;;;;0.53;0.37;;;14.90;99.90;;;;;;5111973;27;20485;-85
2023/10/26 12:10:10;;;;;;;1.47;0.40;;;14.90;99.90;;;;;;5107597;27;20541;-85
2023/10/26 12:12:37;;;;;;;1.23;0.50;;;14.80;99.90;;;;;;5120614;27;21000;-85
2023/10/26 12:15:05;;;;;;;1.17;0.40;;;14.90;99.90;;;;;;5108851;27;20546;-84
2023/10/26 12:17:32;;;;;;;0.50;0.40;;;14.90;99.90;;;;;;5109275;27;20836;-84
2023/10/26 12:19:59;;;;;;;0.80;0.40;;;14.80;99.90;;;;;;5100371;27;20503;-84
2023/10/26 12:22:28;;;;;;;0.67;0.40;;;14.80;99.90;;;;;;5128856;27;20515;-84
2023/10/26 12:24:55;;;;;;;0.40;0.30;;;14.70;99.90;;;;;;5137089;27;20460;-83
2023/10/26 12:27:22;;;;;;;0.50;0.37;;;14.50;99.90;;;;;;5123216;27;20547;-83
2023/10/26 12:29:49;;;;;;;2.00;0.40;;;14.40;99.90;;;;;;5104089;27;20460;-82
2023/10/26 12:32:16;;;;;;;0.40;0.30;;;14.40;99.90;;;;;;5107517;27;20522;-82
2023/10/26 12:34:43;;;;;;;0.60;0.40;;;14.40;99.90;;;;;;5110085;27;20441;-82
2023/10/26 12:37:10;;;;;;;1.47;0.40;;;14.60;99.90;;;;;;5108529;27;20474;-82
2023/10/26 12:39:39;;;;;;;0.40;0.30;;;14.70;99.90;;;;;;5117560;27;20492;-82
2023/10/26 12:42:06;;;;;;;0.60;0.37;;;14.50;99.90;;;;;;5111656;27;20547;-82
2023/10/26 12:44:33;;;;;;;0.60;0.30;;;14.40;99.90;;;;;;5107018;27;20954;-82
2023/10/26 12:47:00;;;;;;;2.63;0.83;;;14.30;99.90;;;;;;5106136;27;20461;-82
2023/10/26 12:49:27;;;;;;;0.60;0.40;;;14.20;99.90;;;;;;5107574;27;20617;-83
2023/10/26 12:51:54;;;;;;;1.17;0.60;;;14.00;99.90;;;;;;5113636;27;21167;-83